Time;durP1;ratioP1;P1;durP2;ratioP2;P2;SDS_P1;SDS_P2;PMS_P1;PMS_P2;Temp;Humidity;BMP_temperature;BMP_pressure;BME280_temperature;BME280_humidity;BME280_pressure;Samples;Min_cycle;Max_cycle;Signal;HPM_P1;HPM_P2
2020/12/12 00:00:45;;;;;;;17.33;10.45;;;4.30;50.90;;;;;;5009103;28;20048;-71
2020/12/12 00:03:12;;;;;;;18.02;10.57;;;4.30;51.40;;;;;;5008597;28;20042;-72
2020/12/12 00:05:40;;;;;;;18.38;10.90;;;4.30;50.70;;;;;;5011466;28;20058;-72
2020/12/12 00:08:07;;;;;;;18.00;10.50;;;4.30;50.20;;;;;;5010289;28;20061;-70
2020/12/12 00:10:35;;;;;;;17.00;10.30;;;4.30;50.60;;;;;;5010524;28;20176;-70
2020/12/12 00:13:02;;;;;;;17.63;10.50;;;4.30;51.20;;;;;;5022184;28;20504;-69
2020/12/12 00:15:30;;;;;;;27.70;11.57;;;4.30;50.60;;;;;;5016637;28;20526;-68
2020/12/12 00:17:57;;;;;;;19.30;11.43;;;4.30;50.80;;;;;;5013102;28;20084;-70
2020/12/12 00:20:24;;;;;;;17.75;11.00;;;4.30;51.10;;;;;;5015075;28;20609;-73
2020/12/12 00:22:51;;;;;;;21.02;11.77;;;4.30;50.30;;;;;;5016425;28;20054;-70
2020/12/12 00:25:20;;;;;;;18.65;11.10;;;4.30;50.20;;;;;;5012039;28;20042;-73
2020/12/12 00:27:47;;;;;;;20.23;11.88;;;4.20;50.70;;;;;;5011466;28;20049;-68
2020/12/12 00:30:14;;;;;;;18.63;11.20;;;4.20;50.90;;;;;;5009401;28;20049;-74
2020/12/12 00:32:41;;;;;;;19.42;11.32;;;4.20;51.10;;;;;;5011113;28;20063;-72
2020/12/12 00:35:08;;;;;;;18.75;11.10;;;4.20;50.10;;;;;;5010383;28;20041;-73
2020/12/12 00:37:35;;;;;;;20.67;11.65;;;4.10;50.90;;;;;;5013674;28;20081;-71
2020/12/12 00:40:02;;;;;;;20.50;12.35;;;4.10;51.10;;;;;;5009901;28;20053;-73
2020/12/12 00:42:29;;;;;;;23.33;12.57;;;4.10;51.40;;;;;;5011202;28;20049;-71
2020/12/12 00:44:56;;;;;;;21.23;11.77;;;4.10;51.60;;;;;;5011323;28;20049;-72
2020/12/12 00:47:23;;;;;;;24.05;11.88;;;4.10;51.90;;;;;;5011978;28;20132;-70
2020/12/12 00:49:51;;;;;;;20.60;12.20;;;4.10;51.00;;;;;;5007411;28;20045;-71
2020/12/12 00:52:18;;;;;;;19.63;12.60;;;4.20;52.20;;;;;;5010483;28;20050;-72
2020/12/12 00:54:44;;;;;;;18.42;11.48;;;4.20;51.20;;;;;;5009464;28;20407;-73
2020/12/12 00:57:12;;;;;;;20.95;11.75;;;4.30;52.20;;;;;;5009421;28;20048;-73
2020/12/12 00:59:38;;;;;;;19.60;10.70;;;4.20;49.70;;;;;;5009211;28;20050;-73
2020/12/12 01:02:05;;;;;;;17.95;10.80;;;4.20;50.20;;;;;;5011755;28;20049;-72
2020/12/12 01:04:32;;;;;;;18.23;10.43;;;4.30;51.60;;;;;;5008391;28;20492;-72
2020/12/12 01:07:00;;;;;;;18.80;10.82;;;4.30;52.00;;;;;;5010109;28;20046;-72
2020/12/12 01:09:27;;;;;;;15.82;10.20;;;4.30;50.10;;;;;;5010271;28;20424;-72
2020/12/12 01:11:55;;;;;;;18.17;10.80;;;4.30;50.70;;;;;;5014301;28;20057;-76
2020/12/12 01:14:21;;;;;;;19.75;11.48;;;4.20;51.20;;;;;;5014849;28;20042;-72
2020/12/12 01:16:48;;;;;;;19.05;10.48;;;4.20;53.20;;;;;;5013325;28;20049;-71
2020/12/12 01:19:16;;;;;;;17.67;10.35;;;4.20;52.70;;;;;;5016051;28;20050;-74
2020/12/12 01:21:42;;;;;;;18.83;11.40;;;4.20;54.30;;;;;;5007787;28;20054;-73
2020/12/12 01:24:15;;;;;;;21.27;10.98;;;4.20;54.30;;;;;;5014704;28;20486;-75
2020/12/12 01:26:46;;;;;;;18.00;10.52;;;4.20;54.90;;;;;;5012966;28;20133;-70
2020/12/12 01:29:13;;;;;;;16.95;10.52;;;4.10;54.90;;;;;;5010421;28;20053;-71
2020/12/12 01:31:39;;;;;;;19.92;11.60;;;4.10;56.10;;;;;;5011092;28;20045;-72
2020/12/12 01:34:06;;;;;;;18.40;11.05;;;4.10;56.30;;;;;;5014276;28;20053;-73
2020/12/12 01:36:33;;;;;;;18.10;10.88;;;4.10;56.40;;;;;;5012756;28;20431;-73
2020/12/12 01:39:00;;;;;;;18.42;10.07;;;4.00;55.90;;;;;;5013446;28;20061;-73
2020/12/12 01:41:28;;;;;;;17.73;10.15;;;4.00;56.60;;;;;;5009882;28;20057;-70
2020/12/12 01:43:54;;;;;;;17.98;10.57;;;4.00;56.50;;;;;;5012240;28;20048;-73
2020/12/12 01:46:24;;;;;;;18.55;10.25;;;4.00;56.50;;;;;;5014991;28;20407;-73
2020/12/12 01:48:53;;;;;;;20.08;10.73;;;4.00;56.90;;;;;;5011064;28;20167;-74
2020/12/12 01:51:21;;;;;;;18.33;10.57;;;3.90;56.90;;;;;;5010433;28;20121;-70
2020/12/12 01:53:50;;;;;;;17.02;9.75;;;4.00;57.50;;;;;;5011542;28;20507;-74
2020/12/12 01:56:18;;;;;;;18.60;10.13;;;4.00;55.80;;;;;;5016302;28;20049;-71
2020/12/12 01:58:46;;;;;;;18.88;10.48;;;4.00;56.90;;;;;;5013030;28;20050;-71
2020/12/12 02:01:13;;;;;;;18.58;10.63;;;3.90;57.80;;;;;;5010911;28;20049;-70
2020/12/12 02:03:43;;;;;;;18.30;10.85;;;3.90;59.10;;;;;;5013489;28;20124;-71
2020/12/12 02:06:12;;;;;;;22.45;11.52;;;3.90;59.50;;;;;;5017403;28;20120;-71
2020/12/12 02:08:39;;;;;;;18.33;10.98;;;3.90;60.70;;;;;;5014181;28;20050;-71
2020/12/12 02:11:11;;;;;;;19.25;11.48;;;4.00;58.60;;;;;;5013433;28;20046;-71
2020/12/12 02:13:38;;;;;;;20.77;11.20;;;4.00;59.80;;;;;;5014374;28;20054;-71
2020/12/12 02:16:10;;;;;;;21.30;11.82;;;4.00;58.50;;;;;;5015538;28;20541;-71
2020/12/12 02:18:38;;;;;;;21.02;11.77;;;4.00;57.90;;;;;;5012338;28;20057;-71
2020/12/12 02:21:05;;;;;;;19.80;11.10;;;4.10;57.50;;;;;;5017287;28;20057;-71
2020/12/12 02:23:33;;;;;;;18.50;11.38;;;4.00;57.30;;;;;;5016763;28;20057;-70
2020/12/12 02:26:00;;;;;;;19.88;11.27;;;4.00;58.90;;;;;;5018320;28;20586;-70
2020/12/12 02:28:31;;;;;;;21.80;11.70;;;4.00;59.20;;;;;;5013136;28;20049;-70
2020/12/12 02:30:58;;;;;;;21.90;12.20;;;4.00;60.20;;;;;;5010295;28;20050;-70
2020/12/12 02:33:25;;;;;;;20.92;11.70;;;4.00;61.30;;;;;;5014834;28;20100;-71
2020/12/12 02:35:52;;;;;;;23.55;12.25;;;4.00;60.70;;;;;;5013172;28;20046;-71
2020/12/12 02:38:19;;;;;;;20.10;11.85;;;3.90;61.00;;;;;;5017325;28;20874;-71
2020/12/12 02:40:46;;;;;;;21.00;12.15;;;3.90;61.20;;;;;;5015038;28;20080;-71
2020/12/12 02:43:14;;;;;;;21.83;11.48;;;3.90;61.60;;;;;;5023165;28;20046;-70
2020/12/12 02:45:46;;;;;;;19.20;11.52;;;3.90;61.60;;;;;;5014367;28;20090;-71
2020/12/12 02:48:13;;;;;;;19.85;11.18;;;3.90;61.20;;;;;;5017151;28;20049;-71
2020/12/12 02:50:41;;;;;;;20.00;11.88;;;3.90;59.90;;;;;;5014106;28;20492;-71
2020/12/12 02:53:08;;;;;;;21.92;11.43;;;4.00;61.30;;;;;;5013156;28;20432;-71
2020/12/12 02:55:35;;;;;;;23.10;11.43;;;3.90;61.20;;;;;;5012690;28;20054;-71
2020/12/12 02:58:03;;;;;;;20.20;11.73;;;3.90;61.20;;;;;;5013313;28;20125;-71
2020/12/12 03:00:30;;;;;;;22.23;11.85;;;3.90;61.20;;;;;;5012120;28;20056;-71
2020/12/12 03:02:57;;;;;;;23.92;11.98;;;3.90;62.00;;;;;;5010233;28;20065;-70
2020/12/12 03:05:24;;;;;;;22.60;12.60;;;3.90;62.10;;;;;;5012622;28;20125;-70
2020/12/12 03:07:51;;;;;;;21.05;12.02;;;4.00;61.30;;;;;;5013142;28;20523;-71
2020/12/12 03:10:18;;;;;;;22.52;11.55;;;4.00;60.80;;;;;;5012686;28;20054;-71
2020/12/12 03:12:45;;;;;;;21.90;11.50;;;4.00;60.30;;;;;;5011686;28;20053;-71
2020/12/12 03:15:13;;;;;;;22.00;11.68;;;3.90;61.10;;;;;;5011214;28;20125;-70
2020/12/12 03:17:40;;;;;;;20.77;11.57;;;3.90;61.70;;;;;;5010725;28;20125;-72
2020/12/12 03:20:08;;;;;;;23.52;12.85;;;3.90;61.20;;;;;;5002950;28;20046;-70
2020/12/12 03:22:35;;;;;;;22.27;12.50;;;3.80;61.50;;;;;;5006156;28;20052;-70
2020/12/12 03:25:02;;;;;;;21.83;12.45;;;3.80;63.30;;;;;;5004801;28;20057;-71
2020/12/12 03:27:29;;;;;;;25.27;13.43;;;3.80;63.90;;;;;;5012872;28;20054;-71
2020/12/12 03:29:56;;;;;;;26.42;13.40;;;3.80;65.20;;;;;;5012525;28;20048;-71
2020/12/12 03:32:32;;;;;;;22.90;13.18;;;3.70;65.10;;;;;;5012832;28;20094;-70
2020/12/12 03:35:00;;;;;;;23.90;13.15;;;3.70;66.20;;;;;;4998827;28;20113;-71
2020/12/12 03:37:26;;;;;;;24.70;13.75;;;3.70;67.30;;;;;;5012131;28;20053;-70
2020/12/12 03:39:53;;;;;;;28.42;13.95;;;3.60;67.20;;;;;;5004284;28;20050;-70
2020/12/12 03:42:20;;;;;;;26.70;14.98;;;3.60;67.70;;;;;;5011588;28;20046;-72
2020/12/12 03:44:47;;;;;;;28.70;13.95;;;3.70;69.00;;;;;;5006557;28;20054;-70
2020/12/12 03:47:14;;;;;;;25.08;14.07;;;3.60;69.00;;;;;;5011347;28;20042;-71
2020/12/12 03:49:42;;;;;;;25.80;13.80;;;3.60;69.10;;;;;;5006325;28;20586;-71
2020/12/12 03:52:09;;;;;;;27.98;14.95;;;3.60;69.10;;;;;;5009672;28;20045;-71
2020/12/12 03:54:36;;;;;;;25.88;14.40;;;3.60;69.20;;;;;;5012071;28;20046;-71
2020/12/12 03:57:04;;;;;;;28.00;15.23;;;3.60;69.10;;;;;;5010585;28;20053;-71
2020/12/12 03:59:30;;;;;;;26.15;14.18;;;3.70;69.20;;;;;;5011726;28;20042;-71
2020/12/12 04:01:57;;;;;;;28.10;14.95;;;3.70;68.70;;;;;;5010858;28;20528;-71
2020/12/12 04:04:24;;;;;;;27.67;14.27;;;3.80;67.70;;;;;;5012185;28;20092;-71
2020/12/12 04:06:52;;;;;;;26.38;15.15;;;3.80;66.60;;;;;;5012510;28;20050;-72
2020/12/12 04:09:19;;;;;;;26.95;15.00;;;3.70;66.60;;;;;;5009685;28;20628;-71
2020/12/12 04:11:46;;;;;;;27.27;14.77;;;3.70;66.70;;;;;;5011573;28;20437;-70
2020/12/12 04:14:13;;;;;;;28.33;14.85;;;3.70;66.50;;;;;;5012223;28;20041;-71
2020/12/12 04:16:39;;;;;;;27.60;14.57;;;3.70;67.30;;;;;;5008973;28;20084;-70
2020/12/12 04:19:06;;;;;;;29.35;14.90;;;3.70;66.70;;;;;;5012124;28;20492;-70
2020/12/12 04:21:33;;;;;;;27.75;15.30;;;3.70;66.40;;;;;;5011986;28;20425;-69
2020/12/12 04:24:01;;;;;;;26.48;15.00;;;3.70;66.70;;;;;;5011673;28;20046;-71
2020/12/12 04:26:28;;;;;;;24.60;13.20;;;3.80;67.40;;;;;;5011909;28;20054;-70
2020/12/12 04:28:55;;;;;;;24.05;13.35;;;3.80;66.20;;;;;;5011928;28;20519;-71
2020/12/12 04:31:22;;;;;;;24.63;13.88;;;3.80;65.70;;;;;;5011035;28;20054;-70
2020/12/12 04:33:50;;;;;;;24.35;13.68;;;3.80;66.00;;;;;;5007174;28;20054;-69
2020/12/12 04:36:17;;;;;;;28.40;14.43;;;3.70;65.10;;;;;;5011695;28;20052;-71
2020/12/12 04:38:43;;;;;;;29.15;15.30;;;3.70;66.20;;;;;;5012110;28;20103;-70
2020/12/12 04:41:13;;;;;;;27.73;14.48;;;3.70;66.10;;;;;;5005895;28;20447;-70
2020/12/12 04:43:40;;;;;;;23.25;13.32;;;3.80;65.80;;;;;;5009129;28;20116;-70
2020/12/12 04:46:08;;;;;;;23.33;13.13;;;3.80;65.30;;;;;;5013313;28;20077;-69
2020/12/12 04:48:35;;;;;;;24.17;13.82;;;3.80;65.20;;;;;;5015694;28;20131;-70
2020/12/12 04:51:04;;;;;;;21.48;12.45;;;3.80;65.20;;;;;;5014516;28;20057;-70
2020/12/12 04:53:32;;;;;;;28.00;13.38;;;3.80;65.20;;;;;;5015371;28;20489;-72
2020/12/12 04:56:03;;;;;;;27.75;14.68;;;3.80;65.90;;;;;;5004895;28;20050;-71
2020/12/12 04:58:32;;;;;;;24.80;13.05;;;3.80;66.40;;;;;;5013025;28;20048;-71
2020/12/12 05:00:59;;;;;;;26.13;13.32;;;3.80;66.40;;;;;;5014749;28;20050;-71
2020/12/12 05:03:27;;;;;;;23.08;13.23;;;3.80;65.30;;;;;;5015969;28;20147;-71
2020/12/12 05:05:54;;;;;;;22.83;12.52;;;3.80;65.30;;;;;;5015578;28;20141;-70
2020/12/12 05:08:21;;;;;;;22.17;13.48;;;3.80;65.20;;;;;;5015469;28;20042;-71
2020/12/12 05:10:52;;;;;;;23.65;12.98;;;3.90;65.00;;;;;;5015239;28;20459;-69
2020/12/12 05:13:20;;;;;;;20.15;12.05;;;3.90;65.30;;;;;;5015241;28;20054;-71
2020/12/12 05:15:52;;;;;;;21.92;11.93;;;3.90;64.60;;;;;;5015122;28;20042;-71
2020/12/12 05:18:19;;;;;;;22.02;12.68;;;4.00;64.00;;;;;;5013271;28;20046;-71
2020/12/12 05:20:46;;;;;;;19.45;10.80;;;4.00;63.60;;;;;;5014135;28;20049;-69
2020/12/12 05:23:15;;;;;;;19.05;10.93;;;4.00;62.10;;;;;;5013625;28;20411;-71
2020/12/12 05:25:44;;;;;;;19.45;11.50;;;4.10;62.10;;;;;;5014609;28;20100;-73
2020/12/12 05:28:12;;;;;;;19.67;11.27;;;4.00;62.10;;;;;;5014844;28;20049;-70
2020/12/12 05:30:40;;;;;;;20.30;11.48;;;4.00;62.60;;;;;;5009066;28;20058;-69
2020/12/12 05:33:11;;;;;;;19.02;11.27;;;4.00;62.50;;;;;;5014689;28;20141;-71
2020/12/12 05:35:38;;;;;;;22.33;12.57;;;4.10;62.30;;;;;;5014125;28;20060;-72
2020/12/12 05:38:09;;;;;;;17.67;11.32;;;4.10;61.40;;;;;;5014499;28;20099;-69
2020/12/12 05:40:36;;;;;;;19.80;11.52;;;4.10;61.40;;;;;;5012438;28;20564;-69
2020/12/12 05:43:04;;;;;;;19.90;11.65;;;4.10;61.40;;;;;;5014587;28;20053;-69
2020/12/12 05:45:32;;;;;;;18.27;11.13;;;4.00;61.30;;;;;;5013863;28;20124;-70
2020/12/12 05:47:59;;;;;;;19.33;11.60;;;4.10;61.50;;;;;;5014503;28;20046;-68
2020/12/12 05:50:27;;;;;;;19.17;11.60;;;4.10;61.00;;;;;;5013235;28;20136;-72
2020/12/12 05:52:55;;;;;;;18.42;10.80;;;4.10;61.90;;;;;;5010966;28;20125;-72
2020/12/12 05:55:23;;;;;;;20.33;11.43;;;4.10;60.40;;;;;;5014128;28;20052;-71
2020/12/12 05:57:52;;;;;;;19.58;11.60;;;4.10;59.70;;;;;;5013251;28;20053;-70
2020/12/12 06:00:20;;;;;;;18.70;11.88;;;4.20;60.90;;;;;;5005509;28;20050;-71
2020/12/12 06:02:53;;;;;;;18.63;11.50;;;4.20;60.10;;;;;;5012012;28;20488;-69
2020/12/12 06:05:25;;;;;;;17.70;10.75;;;4.20;58.90;;;;;;5013884;28;20050;-68
2020/12/12 06:07:55;;;;;;;16.65;10.93;;;4.20;59.10;;;;;;5013015;28;20042;-71
2020/12/12 06:10:27;;;;;;;19.50;11.18;;;4.20;61.40;;;;;;5012593;28;20145;-70
2020/12/12 06:12:58;;;;;;;17.95;10.60;;;4.20;62.50;;;;;;5012789;28;20046;-69
2020/12/12 06:15:37;;;;;;;18.27;10.43;;;4.10;64.10;;;;;;5013100;28;20042;-72
2020/12/12 06:18:26;;;;;;;19.73;11.23;;;4.10;65.10;;;;;;5012513;28;20412;-68
2020/12/12 06:20:54;;;;;;;18.25;10.48;;;4.10;65.00;;;;;;5013597;28;20054;-71
2020/12/12 06:23:22;;;;;;;17.25;10.07;;;4.10;65.00;;;;;;5013546;28;20500;-70
2020/12/12 06:25:49;;;;;;;17.25;10.88;;;4.10;64.50;;;;;;5011853;28;20499;-69
2020/12/12 06:28:21;;;;;;;17.67;10.80;;;4.20;63.90;;;;;;5013585;28;20104;-70
2020/12/12 06:30:49;;;;;;;18.00;10.77;;;4.10;63.80;;;;;;5009446;28;20412;-69
2020/12/12 06:33:17;;;;;;;20.08;10.70;;;4.20;64.40;;;;;;5013424;28;20048;-69
2020/12/12 06:35:43;;;;;;;14.65;8.70;;;4.20;64.60;;;;;;5013200;28;20038;-68
2020/12/12 06:38:26;;;;;;;18.90;10.30;;;4.30;63.40;;;;;;5013407;28;20062;-69
2020/12/12 06:40:56;;;;;;;14.98;9.25;;;4.30;62.90;;;;;;5012201;28;20052;-69
2020/12/12 06:43:34;;;;;;;16.75;9.32;;;4.30;62.50;;;;;;5011807;28;20046;-69
2020/12/12 06:46:02;;;;;;;13.65;8.73;;;4.40;61.70;;;;;;5012454;28;20046;-68
2020/12/12 06:48:30;;;;;;;14.60;8.98;;;4.30;61.80;;;;;;5013256;28;20101;-69
2020/12/12 06:51:00;;;;;;;15.00;9.05;;;4.40;62.40;;;;;;5012178;28;20045;-69
2020/12/12 06:53:29;;;;;;;15.02;9.38;;;4.40;61.80;;;;;;5013038;28;20519;-69
2020/12/12 06:56:10;;;;;;;14.75;8.95;;;4.40;61.70;;;;;;5011635;28;20053;-69
2020/12/12 06:58:38;;;;;;;13.43;8.82;;;4.40;61.70;;;;;;5012580;28;20050;-69
2020/12/12 07:01:28;;;;;;;15.80;9.88;;;4.40;61.60;;;;;;5012621;28;20056;-69
2020/12/12 07:03:59;;;;;;;18.38;10.60;;;4.40;62.50;;;;;;5011639;28;20056;-72
2020/12/12 07:06:27;;;;;;;18.38;10.05;;;4.40;61.80;;;;;;5010941;28;20077;-72
2020/12/12 07:08:59;;;;;;;15.55;9.35;;;4.40;62.50;;;;;;5012607;28;20052;-69
2020/12/12 07:11:27;;;;;;;15.88;9.02;;;4.50;61.80;;;;;;5008584;28;20046;-69
2020/12/12 07:13:54;;;;;;;16.30;9.63;;;4.40;61.80;;;;;;5012412;28;20664;-69
2020/12/12 07:16:22;;;;;;;15.10;9.32;;;4.50;62.30;;;;;;5012671;28;20061;-70
2020/12/12 07:18:50;;;;;;;14.95;9.52;;;4.40;63.20;;;;;;5012706;28;20077;-69
2020/12/12 07:21:18;;;;;;;14.48;8.52;;;4.50;63.80;;;;;;5011548;28;20066;-70
2020/12/12 07:23:45;;;;;;;14.52;9.02;;;4.40;64.10;;;;;;5012254;28;20062;-69
2020/12/12 07:26:13;;;;;;;13.18;8.68;;;4.50;64.60;;;;;;5012431;28;20052;-70
2020/12/12 07:28:40;;;;;;;14.15;8.88;;;4.50;64.90;;;;;;5012274;28;20053;-70
2020/12/12 07:31:07;;;;;;;15.98;9.18;;;4.50;64.70;;;;;;5011602;28;20054;-69
2020/12/12 07:33:34;;;;;;;15.15;8.63;;;4.50;65.40;;;;;;5011857;28;20056;-71
2020/12/12 07:36:02;;;;;;;16.38;9.05;;;4.50;65.80;;;;;;5012566;28;20100;-71
2020/12/12 07:38:29;;;;;;;16.23;9.73;;;4.60;65.90;;;;;;5012715;28;20045;-70
2020/12/12 07:40:56;;;;;;;13.88;8.80;;;4.60;66.50;;;;;;5011860;28;20149;-71
2020/12/12 07:43:23;;;;;;;12.90;8.48;;;4.60;66.80;;;;;;5009546;28;20052;-71
2020/12/12 07:46:02;;;;;;;18.10;9.98;;;4.60;67.00;;;;;;5012119;28;20050;-71
2020/12/12 07:48:29;;;;;;;14.70;9.23;;;4.60;67.40;;;;;;5012142;28;20607;-72
2020/12/12 07:50:57;;;;;;;14.05;8.95;;;4.70;67.60;;;;;;5011916;28;20046;-70
2020/12/12 07:53:24;;;;;;;12.13;8.02;;;4.70;66.10;;;;;;5012293;28;20045;-71
2020/12/12 07:55:55;;;;;;;12.25;8.30;;;4.70;66.00;;;;;;5012131;28;20046;-72
2020/12/12 07:58:26;;;;;;;13.15;7.65;;;4.80;66.80;;;;;;5012074;28;20526;-70
2020/12/12 08:00:57;;;;;;;13.43;7.95;;;4.80;66.60;;;;;;5011492;28;20417;-70
2020/12/12 08:03:24;;;;;;;11.73;8.10;;;4.80;66.20;;;;;;5012300;28;20050;-70
2020/12/12 08:06:04;;;;;;;12.57;8.15;;;4.90;66.20;;;;;;5011754;28;20042;-71
2020/12/12 08:08:31;;;;;;;12.70;8.25;;;4.90;66.10;;;;;;5004675;28;20050;-71
2020/12/12 08:10:59;;;;;;;12.43;7.47;;;5.00;66.30;;;;;;5011316;28;20132;-72
2020/12/12 08:13:28;;;;;;;12.63;8.07;;;5.00;65.20;;;;;;5012437;28;20041;-71
2020/12/12 08:16:08;;;;;;;13.98;7.97;;;5.10;63.70;;;;;;5011972;28;20045;-71
2020/12/12 08:18:35;;;;;;;12.88;8.23;;;5.10;63.60;;;;;;5002738;28;20057;-72
2020/12/12 08:21:13;;;;;;;9.82;6.82;;;5.20;64.20;;;;;;5010618;28;20058;-71
2020/12/12 08:23:41;;;;;;;13.70;8.00;;;5.30;64.20;;;;;;5011207;28;20054;-71
2020/12/12 08:26:11;;;;;;;16.67;7.53;;;5.30;64.00;;;;;;5010039;28;20042;-71
2020/12/12 08:28:40;;;;;;;19.02;8.38;;;5.30;62.90;;;;;;5011513;28;20767;-69
2020/12/12 08:31:11;;;;;;;17.40;7.60;;;5.30;63.70;;;;;;5010949;28;20046;-71
2020/12/12 08:33:38;;;;;;;13.02;7.38;;;5.30;65.50;;;;;;5010890;28;20064;-71
2020/12/12 08:36:19;;;;;;;12.68;7.88;;;5.20;66.20;;;;;;5005486;28;20472;-70
2020/12/12 08:38:52;;;;;;;13.38;8.75;;;5.20;66.50;;;;;;5010705;28;20046;-70
2020/12/12 08:41:20;;;;;;;14.80;8.43;;;5.30;67.10;;;;;;5011146;28;20492;-72
2020/12/12 08:43:48;;;;;;;13.35;8.15;;;5.30;68.00;;;;;;5011286;28;20052;-72
2020/12/12 08:46:16;;;;;;;15.85;7.82;;;5.30;68.40;;;;;;5011489;28;20488;-70
2020/12/12 08:48:44;;;;;;;11.52;7.38;;;5.30;68.10;;;;;;5011043;28;20053;-71
2020/12/12 08:51:12;;;;;;;12.23;7.35;;;5.30;68.10;;;;;;5010267;28;20411;-71
2020/12/12 08:53:40;;;;;;;12.88;7.90;;;5.40;68.50;;;;;;5009655;28;20056;-71
2020/12/12 08:56:12;;;;;;;12.80;7.07;;;5.40;68.60;;;;;;5010796;28;20116;-69
2020/12/12 08:58:48;;;;;;;14.20;7.13;;;5.50;68.20;;;;;;5008825;28;20124;-71
2020/12/12 09:01:23;;;;;;;10.80;7.25;;;5.50;66.80;;;;;;5008347;28;20042;-71
2020/12/12 09:03:56;;;;;;;11.38;7.25;;;5.50;66.80;;;;;;5008656;28;20070;-70
2020/12/12 09:06:25;;;;;;;11.60;7.28;;;5.60;67.10;;;;;;5011739;28;20108;-71
2020/12/12 09:09:13;;;;;;;9.75;6.38;;;5.60;66.90;;;;;;5011373;28;20053;-70
2020/12/12 09:11:41;;;;;;;12.63;6.80;;;5.70;66.90;;;;;;5010242;28;20050;-70
2020/12/12 09:14:10;;;;;;;11.18;6.72;;;5.80;66.40;;;;;;5010755;28;20054;-71
2020/12/12 09:16:48;;;;;;;13.65;7.43;;;5.90;66.50;;;;;;5011499;28;20046;-72
2020/12/12 09:19:15;;;;;;;11.98;6.60;;;5.90;65.30;;;;;;5010575;28;20120;-73
2020/12/12 09:21:42;;;;;;;11.07;7.13;;;5.90;65.10;;;;;;5009877;28;20045;-70
2020/12/12 09:24:10;;;;;;;11.57;6.85;;;6.00;64.70;;;;;;5010620;28;20045;-71
2020/12/12 09:26:36;;;;;;;13.20;6.78;;;6.00;65.30;;;;;;5005642;28;20084;-71
2020/12/12 09:29:03;;;;;;;12.55;7.07;;;6.00;65.30;;;;;;5010613;28;20100;-70
2020/12/12 09:31:31;;;;;;;13.68;7.15;;;6.00;64.60;;;;;;5007642;28;20072;-70
2020/12/12 09:33:58;;;;;;;10.10;6.38;;;6.10;64.90;;;;;;5012980;28;20073;-69
2020/12/12 09:36:25;;;;;;;12.75;7.15;;;6.10;63.10;;;;;;5010845;28;20042;-71
2020/12/12 09:38:52;;;;;;;10.20;6.70;;;6.20;62.70;;;;;;5006889;28;20048;-70
2020/12/12 09:41:19;;;;;;;9.93;6.60;;;6.20;61.50;;;;;;5012586;28;20042;-72
2020/12/12 09:43:47;;;;;;;10.55;6.88;;;6.30;62.00;;;;;;5013576;28;20607;-71
2020/12/12 09:46:18;;;;;;;10.25;6.68;;;6.30;60.00;;;;;;5013683;28;20050;-71
2020/12/12 09:56:21;;;;;;;9.93;6.05;;;6.40;59.60;;;;;;5012284;28;20555;-71
2020/12/12 09:58:48;;;;;;;8.95;5.82;;;6.30;58.70;;;;;;5012422;28;20245;-70
2020/12/12 10:01:16;;;;;;;8.38;6.05;;;6.40;59.30;;;;;;5010694;28;20049;-71
2020/12/12 10:03:43;;;;;;;9.88;5.80;;;6.40;57.20;;;;;;5012671;28;20054;-70
2020/12/12 10:06:10;;;;;;;9.68;5.90;;;6.30;55.80;;;;;;5012936;28;20041;-71
2020/12/12 10:08:38;;;;;;;8.88;5.90;;;6.30;59.30;;;;;;5010798;28;20081;-71
2020/12/12 10:11:07;;;;;;;9.05;6.15;;;6.30;57.90;;;;;;5011369;28;20049;-71
2020/12/12 10:13:36;;;;;;;10.05;6.63;;;6.30;58.70;;;;;;5011322;28;20056;-71
2020/12/12 10:16:03;;;;;;;11.60;6.82;;;6.30;58.80;;;;;;5012167;28;20054;-71
2020/12/12 10:18:30;;;;;;;9.95;6.03;;;6.20;58.20;;;;;;5012673;28;20553;-70
2020/12/12 10:20:57;;;;;;;8.63;6.22;;;6.30;60.00;;;;;;5007755;28;20050;-72
2020/12/12 10:23:24;;;;;;;9.75;6.35;;;6.30;59.30;;;;;;5012721;28;20050;-72
2020/12/12 10:25:51;;;;;;;11.20;5.97;;;6.40;59.50;;;;;;5011933;28;20050;-72
2020/12/12 10:28:18;;;;;;;10.85;6.10;;;6.40;59.40;;;;;;5010989;28;20054;-71
2020/12/12 10:30:46;;;;;;;12.05;6.40;;;6.40;58.50;;;;;;5008680;28;20064;-72
2020/12/12 10:33:13;;;;;;;8.73;5.18;;;6.40;59.30;;;;;;5012302;28;20418;-71
2020/12/12 10:35:40;;;;;;;8.93;5.90;;;6.40;57.40;;;;;;5010127;28;20041;-72
2020/12/12 10:38:09;;;;;;;11.80;5.10;;;6.50;58.20;;;;;;5012864;28;20050;-73
2020/12/12 10:40:39;;;;;;;8.80;5.32;;;6.50;56.60;;;;;;5009043;28;20042;-72
2020/12/12 10:43:08;;;;;;;10.25;6.20;;;6.60;57.30;;;;;;5011124;28;20053;-71
2020/12/12 10:45:35;;;;;;;8.07;5.40;;;6.70;57.90;;;;;;5011435;28;20049;-71
2020/12/12 10:48:03;;;;;;;9.45;5.75;;;6.70;58.00;;;;;;5012061;28;20132;-72
2020/12/12 10:50:29;;;;;;;6.40;5.35;;;6.80;58.40;;;;;;5009887;28;20054;-72
2020/12/12 10:52:56;;;;;;;10.93;5.20;;;6.80;57.00;;;;;;5011527;28;20125;-71
2020/12/12 10:55:24;;;;;;;6.13;4.47;;;6.70;55.80;;;;;;5009517;28;20046;-68
2020/12/12 10:57:51;;;;;;;9.52;5.47;;;6.60;56.90;;;;;;5011896;28;20240;-71
2020/12/12 11:00:24;;;;;;;7.78;4.80;;;6.80;58.40;;;;;;5010207;28;20045;-72
2020/12/12 11:02:51;;;;;;;8.48;5.25;;;6.70;55.70;;;;;;5011043;28;20563;-72
2020/12/12 11:05:19;;;;;;;7.43;4.75;;;6.80;55.80;;;;;;5011291;28;20096;-72
2020/12/12 11:07:52;;;;;;;8.80;5.72;;;6.90;55.70;;;;;;5011317;28;20053;-72
2020/12/12 11:10:19;;;;;;;11.60;5.90;;;6.80;54.40;;;;;;5008505;28;20053;-71
2020/12/12 11:12:46;;;;;;;6.38;4.93;;;6.90;55.90;;;;;;5010415;28;20053;-71
2020/12/12 11:15:15;;;;;;;8.52;5.30;;;6.80;53.50;;;;;;5011011;28;20052;-73
2020/12/12 11:17:44;;;;;;;6.97;4.82;;;6.80;55.20;;;;;;5010278;28;20050;-73
2020/12/12 11:20:11;;;;;;;9.90;6.88;;;6.80;55.10;;;;;;5009496;28;20067;-72
2020/12/12 11:22:39;;;;;;;9.70;5.28;;;6.90;55.80;;;;;;5011854;28;20451;-72
2020/12/12 11:25:07;;;;;;;9.57;4.68;;;6.80;55.80;;;;;;5009550;28;20117;-74
2020/12/12 11:27:34;;;;;;;5.97;4.68;;;6.90;57.50;;;;;;5009183;28;20054;-73
2020/12/12 11:30:03;;;;;;;7.80;5.13;;;6.90;56.60;;;;;;5008707;28;20048;-73
2020/12/12 11:32:30;;;;;;;6.30;4.65;;;6.90;57.00;;;;;;5009911;28;20042;-71
2020/12/12 11:35:04;;;;;;;6.13;4.60;;;7.00;57.00;;;;;;5010713;28;20077;-73
2020/12/12 11:37:43;;;;;;;7.22;4.75;;;6.90;55.20;;;;;;5010206;28;20069;-71
2020/12/12 11:40:17;;;;;;;8.27;4.97;;;6.90;54.10;;;;;;5009339;28;20050;-73
2020/12/12 11:43:04;;;;;;;7.17;4.93;;;7.00;56.50;;;;;;5011083;28;20496;-72
2020/12/12 11:45:48;;;;;;;7.45;5.07;;;6.80;58.80;;;;;;5006048;28;20313;-69
2020/12/12 11:48:15;;;;;;;6.50;4.38;;;6.80;58.90;;;;;;5003252;28;20479;-72
2020/12/12 11:50:42;;;;;;;10.02;4.88;;;6.80;60.30;;;;;;5006469;28;20058;-74
2020/12/12 11:53:10;;;;;;;11.70;5.07;;;6.80;59.70;;;;;;5008951;28;20065;-72
2020/12/12 11:55:38;;;;;;;7.32;4.85;;;6.60;62.40;;;;;;5008106;28;20049;-72
2020/12/12 11:58:05;;;;;;;10.93;5.07;;;6.80;63.70;;;;;;5010368;28;20061;-72
2020/12/12 12:00:33;;;;;;;7.72;5.43;;;6.80;63.70;;;;;;5008371;28;20064;-70
2020/12/12 12:02:59;;;;;;;8.93;4.97;;;6.70;63.70;;;;;;5007214;28;20045;-72
2020/12/12 12:05:41;;;;;;;10.77;5.03;;;6.70;64.70;;;;;;5008253;28;20189;-72
2020/12/12 12:08:16;;;;;;;11.10;5.30;;;6.70;66.10;;;;;;5009938;28;20361;-71
2020/12/12 12:10:54;;;;;;;10.93;5.30;;;6.70;67.50;;;;;;5003887;28;20046;-71
2020/12/12 12:13:21;;;;;;;7.80;5.13;;;6.70;67.20;;;;;;5004188;28;20046;-70
2020/12/12 12:15:48;;;;;;;8.05;5.50;;;6.80;67.90;;;;;;5008590;28;20125;-72
2020/12/12 12:18:27;;;;;;;11.13;5.82;;;6.80;68.30;;;;;;5010362;28;20127;-72
2020/12/12 12:20:57;;;;;;;9.10;6.13;;;6.70;68.40;;;;;;5002544;28;20050;-70
2020/12/12 12:23:24;;;;;;;9.15;6.05;;;6.70;69.40;;;;;;5007997;28;20050;-72
2020/12/12 12:25:53;;;;;;;9.93;5.60;;;6.70;69.90;;;;;;5008976;28;20522;-73
2020/12/12 12:28:21;;;;;;;11.18;5.82;;;6.70;70.60;;;;;;5009942;28;20053;-71
2020/12/12 12:30:48;;;;;;;10.07;5.97;;;6.60;69.00;;;;;;5006180;28;20057;-73
2020/12/12 12:33:15;;;;;;;9.20;5.93;;;6.70;70.80;;;;;;5005064;28;20050;-71
2020/12/12 12:35:43;;;;;;;7.85;5.68;;;6.70;71.70;;;;;;5006753;28;20389;-71
2020/12/12 12:38:09;;;;;;;9.85;6.15;;;6.70;71.90;;;;;;5008995;28;20049;-72
2020/12/12 12:40:36;;;;;;;9.15;5.25;;;6.70;72.00;;;;;;5007873;28;20069;-68
2020/12/12 12:43:07;;;;;;;9.82;6.20;;;6.70;71.90;;;;;;5005721;28;20136;-73
2020/12/12 12:45:34;;;;;;;7.82;5.05;;;6.70;71.90;;;;;;5008658;28;20080;-70
2020/12/12 12:48:01;;;;;;;9.90;5.72;;;6.70;71.80;;;;;;5009935;28;20053;-71
2020/12/12 12:50:34;;;;;;;8.88;6.03;;;6.60;71.80;;;;;;5007933;28;20054;-73
2020/12/12 12:53:02;;;;;;;9.00;5.47;;;6.60;75.30;;;;;;5003553;28;20050;-72
2020/12/12 12:55:29;;;;;;;11.25;6.82;;;6.60;75.70;;;;;;5008525;28;20056;-72
2020/12/12 12:57:57;;;;;;;12.63;7.13;;;6.60;75.80;;;;;;5008440;28;20052;-72